createdAt,value
2022-11-24T00:00:53.989Z,98722.81
2022-11-24T00:03:21.660Z,98730.41
2022-11-24T00:05:49.091Z,98729.28
2022-11-24T00:08:16.423Z,98728.09
2022-11-24T00:10:44.048Z,98722.69
2022-11-24T00:13:11.406Z,98729.09
2022-11-24T00:15:38.758Z,98724.56
2022-11-24T00:18:06.379Z,98727.91
2022-11-24T00:20:33.716Z,98735.28
2022-11-24T00:23:01.590Z,98736.34
2022-11-24T00:25:29.181Z,98737.00
2022-11-24T00:27:56.528Z,98737.53
2022-11-24T00:30:23.935Z,98743.84
2022-11-24T00:32:52.804Z,98748.69
2022-11-24T00:35:20.150Z,98751.78
2022-11-24T00:37:47.523Z,98754.88
2022-11-24T00:40:15.145Z,98750.97
2022-11-24T00:42:42.481Z,98746.94
2022-11-24T00:45:13.756Z,98754.72
2022-11-24T00:47:41.889Z,98754.69
2022-11-24T00:50:09.586Z,98751.66
2022-11-24T00:52:36.942Z,98757.47
2022-11-24T00:55:04.854Z,98762.94
2022-11-24T00:57:35.014Z,98768.25
2022-11-24T01:00:02.399Z,98767.06
2022-11-24T01:02:30.054Z,98771.28
2022-11-24T01:04:57.443Z,98773.19
2022-11-24T01:07:24.796Z,98766.50
2022-11-24T01:09:52.448Z,98776.31
2022-11-24T01:12:19.814Z,98777.69
2022-11-24T01:14:47.168Z,98776.94
2022-11-24T01:17:14.731Z,98776.34
2022-11-24T01:19:42.089Z,98774.47
2022-11-24T01:22:09.426Z,98778.56
2022-11-24T01:24:37.022Z,98770.34
2022-11-24T01:27:04.371Z,98771.28
2022-11-24T01:29:31.737Z,98775.69
2022-11-24T01:31:59.452Z,98774.75
2022-11-24T01:34:26.759Z,98779.69
2022-11-24T01:36:54.154Z,98787.31
2022-11-24T01:39:21.803Z,98785.66
2022-11-24T01:41:49.154Z,98781.53
2022-11-24T01:44:23.576Z,98786.97
2022-11-24T01:47:29.851Z,98778.56
2022-11-24T01:49:57.808Z,98787.31
2022-11-24T01:52:31.467Z,98785.16
2022-11-24T01:55:02.099Z,98787.75
2022-11-24T01:57:32.213Z,98803.28
2022-11-24T02:00:07.787Z,98790.09
2022-11-24T02:02:41.635Z,98790.53
2022-11-24T02:05:21.867Z,98785.97
2022-11-24T02:07:49.271Z,98796.50
2022-11-24T02:10:16.916Z,98785.81
2022-11-24T02:12:46.906Z,98791.78
2022-11-24T02:15:17.800Z,98791.09
2022-11-24T02:17:45.481Z,98785.34
2022-11-24T02:20:13.013Z,98789.44
2022-11-24T02:22:49.268Z,98782.91
2022-11-24T02:25:36.115Z,98787.47
2022-11-24T02:28:07.068Z,98785.47
2022-11-24T02:30:35.341Z,98798.34
2022-11-24T02:33:02.987Z,98798.53
2022-11-24T02:35:30.338Z,98801.00
2022-11-24T02:37:57.933Z,98810.88
2022-11-24T02:40:26.901Z,98811.50
2022-11-24T02:42:56.375Z,98812.16
2022-11-24T02:45:24.495Z,98799.34
2022-11-24T02:47:51.862Z,98803.63
2022-11-24T02:50:19.211Z,98812.50
2022-11-24T02:52:46.847Z,98815.31
2022-11-24T02:55:14.262Z,98806.25
2022-11-24T02:57:41.635Z,98801.16
2022-11-24T03:00:09.859Z,98814.66
2022-11-24T03:02:37.251Z,98809.53
2022-11-24T03:05:04.950Z,98808.09
2022-11-24T03:07:32.637Z,98817.13
2022-11-24T03:10:00.310Z,98817.13
2022-11-24T03:12:27.637Z,98821.13
2022-11-24T03:14:55.246Z,98824.38
2022-11-24T03:17:22.595Z,98824.75
2022-11-24T03:19:49.925Z,98823.75
2022-11-24T03:22:17.529Z,98832.56
2022-11-24T03:24:44.944Z,98845.03
2022-11-24T03:27:12.274Z,98838.94
2022-11-24T03:29:39.869Z,98834.87
2022-11-24T03:32:07.274Z,98834.19
2022-11-24T03:34:34.827Z,98823.91
2022-11-24T03:37:02.710Z,98830.00
2022-11-24T03:39:30.038Z,98826.69
2022-11-24T03:41:57.374Z,98830.00
2022-11-24T03:44:24.993Z,98828.47
2022-11-24T03:46:52.342Z,98821.88
2022-11-24T03:49:19.707Z,98824.09
2022-11-24T03:51:47.332Z,98827.03
2022-11-24T03:54:14.678Z,98828.63
2022-11-24T03:56:42.058Z,98837.53
2022-11-24T03:59:09.669Z,98831.47
2022-11-24T04:01:37.076Z,98834.59
2022-11-24T04:04:04.873Z,98842.81
2022-11-24T04:06:32.276Z,98849.19
2022-11-24T04:09:00.460Z,98845.31
2022-11-24T04:11:46.734Z,98843.41
2022-11-24T04:14:14.118Z,98849.78
2022-11-24T04:16:41.829Z,98848.38
2022-11-24T04:19:09.199Z,98854.22
2022-11-24T04:21:36.673Z,98852.50
2022-11-24T04:24:04.311Z,98857.56
2022-11-24T04:26:31.691Z,98860.47
2022-11-24T04:28:59.071Z,98870.72
2022-11-24T04:31:26.747Z,98870.03
2022-11-24T04:33:54.163Z,98865.66
2022-11-24T04:36:21.509Z,98882.53
2022-11-24T04:39:25.775Z,98869.28
2022-11-24T04:41:36.465Z,98878.44
2022-11-24T04:44:04.109Z,98882.97
2022-11-24T04:46:31.488Z,98881.88
2022-11-24T04:48:58.874Z,98891.16
2022-11-24T04:51:26.484Z,98898.09
2022-11-24T04:53:53.835Z,98908.44
2022-11-24T04:56:21.223Z,98898.75
2022-11-24T04:58:49.411Z,98903.16
2022-11-24T05:01:16.856Z,98911.81
2022-11-24T05:03:44.380Z,98910.28
2022-11-24T05:06:12.064Z,98921.25
2022-11-24T05:08:39.352Z,98928.16
2022-11-24T05:11:06.754Z,98932.00
2022-11-24T05:13:34.327Z,98934.03
2022-11-24T05:16:01.779Z,98928.28
2022-11-24T05:18:29.280Z,98937.62
2022-11-24T05:20:57.664Z,98940.53
2022-11-24T05:23:25.055Z,98942.25
2022-11-24T05:25:52.854Z,98938.81
2022-11-24T05:28:20.447Z,98953.25
2022-11-24T05:30:47.742Z,98951.88
2022-11-24T05:33:19.297Z,98939.19
2022-11-24T05:35:47.669Z,98948.09
2022-11-24T05:38:15.849Z,98952.72
2022-11-24T05:40:43.479Z,98946.84
2022-11-24T05:43:14.695Z,98954.81
2022-11-24T05:45:42.424Z,98960.66
2022-11-24T05:48:11.960Z,98960.28
2022-11-24T05:50:39.639Z,98958.94
2022-11-24T05:53:08.627Z,98956.94
2022-11-24T05:55:36.194Z,98953.91
2022-11-24T05:58:04.948Z,98958.41
2022-11-24T06:00:32.511Z,98963.81
2022-11-24T06:03:00.382Z,98967.03
2022-11-24T06:05:28.429Z,98975.13
2022-11-24T06:07:55.865Z,98985.47
2022-11-24T06:10:26.347Z,98989.28
2022-11-24T06:12:54.337Z,98992.63
2022-11-24T06:15:21.728Z,99006.22
2022-11-24T06:17:54.163Z,99000.53
2022-11-24T06:20:22.165Z,98999.47
2022-11-24T06:22:49.786Z,99002.34
2022-11-24T06:25:17.268Z,99002.03
2022-11-24T06:27:44.772Z,99026.41
2022-11-24T06:30:13.029Z,99030.47
2022-11-24T06:32:49.129Z,99029.50
2022-11-24T06:35:17.545Z,99039.56
2022-11-24T06:37:45.894Z,99028.25
2022-11-24T06:40:13.234Z,99037.75
2022-11-24T06:42:40.806Z,99031.06
2022-11-24T06:45:09.628Z,99033.84
2022-11-24T06:47:37.316Z,99041.75
2022-11-24T06:50:05.292Z,99040.53
2022-11-24T06:52:32.682Z,99029.09
2022-11-24T06:55:00.021Z,99040.19
2022-11-24T06:57:29.610Z,99042.66
2022-11-24T06:59:58.431Z,99027.44
2022-11-24T07:02:26.130Z,99042.97
2022-11-24T07:04:55.948Z,99037.44
2022-11-24T07:07:23.651Z,99047.50
2022-11-24T07:09:51.078Z,99052.28
2022-11-24T07:12:18.689Z,99050.34
2022-11-24T07:14:46.040Z,99061.38
2022-11-24T07:17:13.411Z,99058.22
2022-11-24T07:19:40.999Z,99064.78
2022-11-24T07:22:08.325Z,99079.88
2022-11-24T07:24:35.914Z,99077.28
2022-11-24T07:27:03.767Z,99079.34
2022-11-24T07:29:31.063Z,99073.16
2022-11-24T07:32:03.675Z,99083.09
2022-11-24T07:34:33.219Z,99077.22
2022-11-24T07:37:00.781Z,99078.25
2022-11-24T07:39:28.111Z,99089.50
2022-11-24T07:41:55.796Z,99080.44
2022-11-24T07:44:23.597Z,99083.41
2022-11-24T07:46:51.358Z,99085.78
2022-11-24T07:49:19.363Z,99095.91
2022-11-24T07:51:55.599Z,99095.63
2022-11-24T07:54:52.343Z,99103.41
2022-11-24T07:57:34.603Z,99096.63
2022-11-24T08:00:06.067Z,99094.91
2022-11-24T08:02:33.743Z,99097.09
2022-11-24T08:05:01.129Z,99100.19
2022-11-24T08:07:28.964Z,99097.91
2022-11-24T08:09:56.575Z,99100.16
2022-11-24T08:12:24.021Z,99103.06
2022-11-24T08:14:51.439Z,99103.59
2022-11-24T08:17:19.082Z,99098.97
2022-11-24T08:19:46.428Z,99100.38
2022-11-24T08:22:13.898Z,99111.34
2022-11-24T08:24:46.471Z,99103.84
2022-11-24T08:27:16.597Z,99113.12
2022-11-24T08:29:44.236Z,99123.19
2022-11-24T08:32:15.046Z,99124.84
2022-11-24T08:34:45.090Z,99132.09
2022-11-24T08:37:12.455Z,99126.84
2022-11-24T08:39:39.768Z,99138.44
2022-11-24T08:42:07.333Z,99130.16
2022-11-24T08:44:34.795Z,99134.19
2022-11-24T08:47:02.240Z,99141.66
2022-11-24T08:49:29.813Z,99124.50
2022-11-24T08:51:57.671Z,99132.94
2022-11-24T08:54:25.634Z,99136.19
2022-11-24T08:56:53.221Z,99137.19
2022-11-24T08:59:20.700Z,99139.53
2022-11-24T09:01:49.194Z,99141.47
2022-11-24T09:04:17.024Z,99143.84
2022-11-24T09:06:44.516Z,99155.47
2022-11-24T09:09:11.894Z,99149.41
2022-11-24T09:11:39.492Z,99156.22
2022-11-24T09:14:06.851Z,99162.53
2022-11-24T09:16:34.308Z,99156.47
2022-11-24T09:19:03.732Z,99157.53
2022-11-24T09:21:31.979Z,99162.06
2022-11-24T09:23:59.289Z,99165.03
2022-11-24T09:26:28.564Z,99165.84
2022-11-24T09:28:56.280Z,99172.56
2022-11-24T09:31:25.399Z,99170.94
2022-11-24T09:33:53.172Z,99164.78
2022-11-24T09:36:20.614Z,99183.56
2022-11-24T09:38:48.059Z,99189.97
2022-11-24T09:41:18.259Z,99191.13
2022-11-24T09:43:51.455Z,99180.25
2022-11-24T09:46:31.324Z,99180.28
2022-11-24T09:48:58.720Z,99169.03
2022-11-24T09:51:29.285Z,99177.63
2022-11-24T09:53:57.964Z,99180.84
2022-11-24T09:56:27.599Z,99179.50
2022-11-24T09:58:59.428Z,99185.59
2022-11-24T10:01:31.583Z,99180.19
2022-11-24T10:04:05.663Z,99179.66
2022-11-24T10:06:40.783Z,99187.69
2022-11-24T10:09:17.261Z,99176.22
2022-11-24T10:11:58.521Z,99177.03
2022-11-24T10:14:35.073Z,99172.81
2022-11-24T10:17:09.961Z,99177.84
2022-11-24T10:20:03.987Z,99190.34
2022-11-24T10:22:35.451Z,99185.19
2022-11-24T10:25:25.059Z,99182.19
2022-11-24T10:27:57.420Z,99190.28
2022-11-24T10:30:25.046Z,99178.84
2022-11-24T10:33:08.011Z,99180.78
2022-11-24T10:35:45.411Z,99183.81
2022-11-24T10:38:28.203Z,99182.78
2022-11-24T10:41:10.335Z,99178.84
2022-11-24T10:43:37.680Z,99188.59
2022-11-24T10:46:11.503Z,99194.88
2022-11-24T10:48:45.890Z,99199.03
2022-11-24T10:51:44.379Z,99203.28
2022-11-24T10:54:20.139Z,99197.31
2022-11-24T10:56:48.147Z,99200.00
2022-11-24T10:59:29.810Z,99201.78
2022-11-24T11:01:57.857Z,99203.13
2022-11-24T11:04:26.275Z,99196.69
2022-11-24T11:07:16.613Z,99211.56
2022-11-24T11:09:44.939Z,99214.84
2022-11-24T11:12:42.560Z,99208.84
2022-11-24T11:15:23.176Z,99207.19
2022-11-24T11:17:52.292Z,99207.53
2022-11-24T11:20:23.975Z,99224.09
2022-11-24T11:22:51.295Z,99211.25
2022-11-24T11:25:19.636Z,99210.91
2022-11-24T11:27:48.317Z,99209.03
2022-11-24T11:36:12.371Z,99211.94
2022-11-24T11:38:40.141Z,99210.41
2022-11-24T11:41:10.876Z,99215.22
2022-11-24T11:43:40.806Z,99230.28
2022-11-24T11:46:16.321Z,99227.09
2022-11-24T11:48:46.423Z,99204.59
2022-11-24T11:51:35.779Z,99219.56
2022-11-24T11:54:24.966Z,99231.47
2022-11-24T11:57:02.449Z,99230.00
2022-11-24T11:59:43.237Z,99231.03
2022-11-24T12:02:53.079Z,99228.38
2022-11-24T12:05:41.651Z,99220.69
2022-11-24T12:08:56.039Z,99228.28
2022-11-24T12:11:35.981Z,99230.09
2022-11-24T12:14:21.439Z,99230.00
2022-11-24T12:16:58.748Z,99216.75
2022-11-24T12:19:38.181Z,99225.38
2022-11-24T12:22:21.235Z,99231.69
2022-11-24T12:24:54.320Z,99229.53
2022-11-24T12:27:39.638Z,99244.75
2022-11-24T12:30:16.850Z,99238.34
2022-11-24T12:33:05.662Z,99226.34
2022-11-24T12:35:36.528Z,99226.69
2022-11-24T12:38:35.793Z,99257.31
2022-11-24T12:41:41.707Z,99234.66
2022-11-24T12:44:36.035Z,99242.94
2022-11-24T12:47:14.495Z,99237.66
2022-11-24T12:49:51.477Z,99241.56
2022-11-24T12:52:23.723Z,99244.09
2022-11-24T12:54:51.253Z,99245.87
2022-11-24T12:57:29.596Z,99250.91
2022-11-24T13:00:21.846Z,99248.22
2022-11-24T13:03:20.402Z,99259.81
2022-11-24T13:05:58.746Z,99254.37
2022-11-24T13:08:27.060Z,99257.16
2022-11-24T13:10:56.549Z,99252.91
2022-11-24T13:13:56.789Z,99255.84
2022-11-24T13:16:53.565Z,99261.13
2022-11-24T13:19:17.159Z,99257.16
2022-11-24T13:21:49.979Z,99258.50
2022-11-24T13:24:17.860Z,99260.31
2022-11-24T13:27:12.739Z,99260.59
2022-11-24T13:29:51.750Z,99260.06
2022-11-24T13:32:19.186Z,99266.72
2022-11-24T13:34:49.823Z,99249.78
2022-11-24T13:37:31.577Z,99251.41
2022-11-24T13:40:12.423Z,99249.25
2022-11-24T13:42:54.707Z,99259.78
2022-11-24T13:45:45.127Z,99261.41
2022-11-24T13:48:22.766Z,99259.72
2022-11-24T13:50:50.605Z,99267.59
2022-11-24T13:53:20.990Z,99258.22
2022-11-24T13:55:59.522Z,99270.63
2022-11-24T13:58:40.761Z,99279.50
2022-11-24T14:01:20.428Z,99274.84
2022-11-24T14:04:28.648Z,99276.31
2022-11-24T14:06:52.200Z,99274.28
2022-11-24T14:09:34.110Z,99271.22
2022-11-24T14:12:06.292Z,99270.84
2022-11-24T14:14:34.151Z,99276.91
2022-11-24T14:17:16.793Z,99289.88
2022-11-24T14:19:46.265Z,99288.03
2022-11-24T14:22:31.468Z,99276.22
2022-11-24T14:25:00.267Z,99284.59
2022-11-24T14:27:32.749Z,99290.09
2022-11-24T14:30:10.392Z,99291.56
2022-11-24T14:32:40.619Z,99301.81
2022-11-24T14:35:28.060Z,99294.84
2022-11-24T14:37:55.703Z,99300.19
2022-11-24T14:40:40.109Z,99296.97
2022-11-24T14:43:21.716Z,99304.91
2022-11-24T14:46:03.779Z,99303.91
2022-11-24T14:48:33.461Z,99314.03
2022-11-24T14:51:23.230Z,99312.31
2022-11-24T14:53:52.355Z,99321.31
2022-11-24T14:56:30.400Z,99335.88
2022-11-24T14:58:57.953Z,99338.81
2022-11-24T15:01:28.563Z,99348.25
2022-11-24T15:04:38.786Z,99340.00
2022-11-24T15:07:27.517Z,99340.69
2022-11-24T15:09:58.022Z,99344.41
2022-11-24T15:12:30.626Z,99343.91
2022-11-24T15:15:20.304Z,99347.56
2022-11-24T15:17:52.682Z,99352.63
2022-11-24T15:20:38.193Z,99365.09
2022-11-24T15:23:20.439Z,99360.72
2022-11-24T15:25:47.844Z,99365.03
2022-11-24T15:28:15.481Z,99358.38
2022-11-24T15:30:42.784Z,99358.34
2022-11-24T15:33:13.569Z,99366.97
2022-11-24T15:35:41.175Z,99369.56
2022-11-24T15:38:08.627Z,99366.31
2022-11-24T15:40:39.598Z,99374.19
2022-11-24T15:43:31.859Z,99381.13
2022-11-24T15:45:59.906Z,99402.03
2022-11-24T15:48:27.886Z,99389.31
2022-11-24T15:50:55.235Z,99389.78
2022-11-24T15:53:36.633Z,99397.47
2022-11-24T15:56:06.000Z,99398.19
2022-11-24T15:58:33.368Z,99401.00
2022-11-24T16:01:00.739Z,99397.03
2022-11-24T16:06:23.668Z,99410.19
2022-11-24T16:08:55.532Z,99403.84
2022-11-24T16:11:23.049Z,99415.72
2022-11-24T16:13:53.459Z,99409.53
2022-11-24T16:16:22.637Z,99411.31
2022-11-24T16:18:50.115Z,99408.25
2022-11-24T16:21:17.457Z,99414.31
2022-11-24T16:23:45.652Z,99414.13
2022-11-24T16:26:13.028Z,99417.88
2022-11-24T16:28:40.773Z,99411.94
2022-11-24T16:31:08.450Z,99414.16
2022-11-24T16:33:38.639Z,99410.56
2022-11-24T16:36:06.416Z,99416.22
2022-11-24T16:38:35.534Z,99416.25
2022-11-24T16:41:02.904Z,99413.16
2022-11-24T16:43:30.266Z,99424.19
2022-11-24T16:46:27.345Z,99434.28
2022-11-24T16:48:55.618Z,99426.47
2022-11-24T16:51:23.324Z,99436.78
2022-11-24T16:54:00.580Z,99434.22
2022-11-24T16:56:28.544Z,99437.34
2022-11-24T16:58:55.949Z,99441.22
2022-11-24T17:01:23.658Z,99446.09
2022-11-24T17:03:51.347Z,99446.78
2022-11-24T17:06:18.738Z,99449.19
2022-11-24T17:08:46.376Z,99450.88
2022-11-24T17:11:18.240Z,99446.47
2022-11-24T17:13:45.927Z,99456.84
2022-11-24T17:16:18.057Z,99468.53
2022-11-24T17:18:45.527Z,99466.41
2022-11-24T17:21:17.893Z,99460.56
2022-11-24T17:23:45.527Z,99472.44
2022-11-24T17:26:16.845Z,99479.94
2022-11-24T17:28:44.195Z,99474.09
2022-11-24T17:31:32.152Z,99487.97
2022-11-24T17:34:00.031Z,99478.13
2022-11-24T17:36:31.221Z,99476.94
2022-11-24T17:39:05.277Z,99486.22
2022-11-24T17:41:33.040Z,99486.53
2022-11-24T17:44:00.367Z,99491.63
2022-11-24T17:46:28.430Z,99499.00
2022-11-24T17:48:56.159Z,99506.37
2022-11-24T17:51:24.414Z,99510.81
2022-11-24T17:53:52.659Z,99513.31
2022-11-24T17:56:23.407Z,99517.12
2022-11-24T17:58:54.431Z,99511.16
2022-11-24T18:01:22.212Z,99516.38
2022-11-24T18:03:53.424Z,99517.34
2022-11-24T18:06:24.058Z,99523.69
2022-11-24T18:08:51.805Z,99523.59
2022-11-24T18:11:24.632Z,99527.19
2022-11-24T18:14:00.789Z,99526.84
2022-11-24T18:16:30.423Z,99530.59
2022-11-24T18:19:14.640Z,99531.47
2022-11-24T18:21:43.704Z,99544.22
2022-11-24T18:24:11.809Z,99549.69
2022-11-24T18:26:39.806Z,99558.63
2022-11-24T18:29:07.875Z,99560.47
2022-11-24T18:31:36.114Z,99553.63
2022-11-24T18:34:05.016Z,99548.63
2022-11-24T18:36:32.465Z,99553.63
2022-11-24T18:39:04.069Z,99548.22
2022-11-24T18:41:31.893Z,99553.31
2022-11-24T18:44:02.394Z,99549.47
2022-11-24T18:46:29.899Z,99546.53
2022-11-24T18:48:57.232Z,99552.88
2022-11-24T18:51:25.231Z,99550.00
2022-11-24T18:53:58.159Z,99550.91
2022-11-24T18:56:26.111Z,99554.94
2022-11-24T18:58:54.017Z,99568.34
2022-11-24T19:01:25.844Z,99566.63
2022-11-24T19:03:54.916Z,99566.28
2022-11-24T19:06:33.005Z,99556.44
2022-11-24T19:09:05.397Z,99562.22
2022-11-24T19:11:37.116Z,99572.38
2022-11-24T19:14:05.570Z,99574.06
2022-11-24T19:16:33.151Z,99577.97
2022-11-24T19:19:01.710Z,99580.66
2022-11-24T19:21:33.655Z,99583.09
2022-11-24T19:24:04.874Z,99586.12
2022-11-24T19:26:35.089Z,99592.28
2022-11-24T19:29:03.554Z,99615.69
2022-11-24T19:31:31.065Z,99606.81
2022-11-24T19:33:59.770Z,99613.31
2022-11-24T19:36:27.275Z,99620.72
2022-11-24T19:38:55.656Z,99614.94
2022-11-24T19:41:28.602Z,99618.28
2022-11-24T19:43:56.658Z,99624.16
2022-11-24T19:46:27.121Z,99629.34
2022-11-24T19:48:56.923Z,99631.09
2022-11-24T19:51:26.672Z,99631.41
2022-11-24T19:53:54.139Z,99636.41
2022-11-24T19:56:22.957Z,99633.69
2022-11-24T19:58:50.948Z,99637.94
2022-11-24T20:01:19.177Z,99626.13
2022-11-24T20:03:49.473Z,99632.41
2022-11-24T20:06:16.845Z,99635.78
2022-11-24T20:08:44.392Z,99634.22
2022-11-24T20:11:16.005Z,99657.56
2022-11-24T20:13:44.471Z,99660.59
2022-11-24T20:16:16.307Z,99661.78
2022-11-24T20:18:44.939Z,99661.69
2022-11-24T20:21:17.171Z,99665.59
2022-11-24T20:23:45.296Z,99663.41
2022-11-24T20:26:14.983Z,99668.34
2022-11-24T20:28:42.518Z,99678.81
2022-11-24T20:31:14.277Z,99677.44
2022-11-24T20:33:42.019Z,99673.22
2022-11-24T20:36:10.901Z,99679.63
2022-11-24T20:38:38.504Z,99681.59
2022-11-24T20:41:13.376Z,99675.09
2022-11-24T20:43:40.818Z,99695.56
2022-11-24T20:46:10.095Z,99694.16
2022-11-24T20:48:37.540Z,99698.50
2022-11-24T20:51:12.620Z,99698.66
2022-11-24T20:53:40.287Z,99697.28
2022-11-24T20:56:24.189Z,99695.41
2022-11-24T20:58:51.970Z,99704.13
2022-11-24T21:01:25.829Z,99706.75
2022-11-24T21:03:54.844Z,99699.72
2022-11-24T21:06:22.406Z,99709.78
2022-11-24T21:08:50.521Z,99705.00
2022-11-24T21:11:18.280Z,99713.94
2022-11-24T21:13:46.074Z,99718.84
2022-11-24T21:16:18.289Z,99707.12
2022-11-24T21:18:46.919Z,99706.63
2022-11-24T21:21:14.401Z,99701.00
2022-11-24T21:23:41.739Z,99699.44
2022-11-24T21:26:13.308Z,99707.66
2022-11-24T21:28:42.843Z,99701.47
2022-11-24T21:31:15.162Z,99705.78
2022-11-24T21:33:46.725Z,99711.44
2022-11-24T21:36:15.470Z,99713.72
2022-11-24T21:38:42.913Z,99715.72
2022-11-24T21:41:11.068Z,99713.16
2022-11-24T21:43:38.703Z,99711.06
2022-11-24T21:46:07.516Z,99710.59
2022-11-24T21:48:35.786Z,99713.97
2022-11-24T21:51:05.596Z,99713.38
2022-11-24T21:53:34.543Z,99708.47
2022-11-24T21:56:03.167Z,99712.25
2022-11-24T21:58:30.938Z,99714.81
2022-11-24T22:01:05.633Z,99719.53
2022-11-24T22:03:33.274Z,99734.37
2022-11-24T22:06:00.668Z,99733.34
2022-11-24T22:08:28.754Z,99741.97
2022-11-24T22:11:11.029Z,99750.19
2022-11-24T22:13:38.348Z,99751.09
2022-11-24T22:16:07.741Z,99754.88
2022-11-24T22:18:36.759Z,99761.22
2022-11-24T22:21:04.755Z,99761.38
2022-11-24T22:23:32.679Z,99769.69
2022-11-24T22:26:07.833Z,99763.63
2022-11-24T22:28:35.695Z,99758.13
2022-11-24T22:31:04.676Z,99766.72
2022-11-24T22:33:32.200Z,99767.88
2022-11-24T22:35:59.963Z,99771.09
2022-11-24T22:38:27.568Z,99767.63
2022-11-24T22:40:55.045Z,99777.28
2022-11-24T22:43:23.183Z,99774.78
2022-11-24T22:45:50.670Z,99784.50
2022-11-24T22:48:18.039Z,99784.53
2022-11-24T22:50:45.640Z,99790.63
2022-11-24T22:53:12.926Z,99786.56
2022-11-24T22:55:40.254Z,99793.75
2022-11-24T22:58:07.844Z,99787.94
2022-11-24T23:00:35.174Z,99791.69
2022-11-24T23:03:02.550Z,99795.25
2022-11-24T23:05:32.280Z,99799.62
2022-11-24T23:07:59.611Z,99797.69
2022-11-24T23:10:26.931Z,99791.22
2022-11-24T23:12:55.296Z,99794.87
2022-11-24T23:15:22.641Z,99794.87
2022-11-24T23:17:49.953Z,99796.09
2022-11-24T23:20:17.651Z,99795.84
2022-11-24T23:22:45.056Z,99794.87
2022-11-24T23:25:12.340Z,99792.91
2022-11-24T23:27:39.950Z,99795.84
2022-11-24T23:30:07.865Z,99807.94
2022-11-24T23:32:35.200Z,99813.22
2022-11-24T23:35:02.800Z,99802.09
2022-11-24T23:37:52.224Z,99805.47
2022-11-24T23:40:17.731Z,99812.78
2022-11-24T23:42:48.357Z,99822.44
2022-11-24T23:45:15.761Z,99813.91
2022-11-24T23:47:43.515Z,99816.00
2022-11-24T23:50:10.947Z,99820.38
2022-11-24T23:52:38.296Z,99819.56
2022-11-24T23:55:06.135Z,99824.75
2022-11-24T23:57:33.473Z,99818.91
